Time;durP1;ratioP1;P1;durP2;ratioP2;P2;SDS_P1;SDS_P2;PMS_P1;PMS_P2;Temp;Humidity;BMP_temperature;BMP_pressure;BME280_temperature;BME280_humidity;BME280_pressure;Samples;Min_cycle;Max_cycle;Signal;HPM_P1;HPM_P2
2022/03/06 00:02:27;;;;;;;13.13;8.40;;;-0.20;99.90;;;;;;12472223;28;20048;-35
2022/03/06 00:08:31;;;;;;;14.77;8.73;;;-0.20;99.90;;;;;;12493310;28;20594;-35
2022/03/06 00:14:35;;;;;;;13.07;8.07;;;-0.20;99.90;;;;;;12468259;28;20445;-35
2022/03/06 00:20:42;;;;;;;16.48;8.35;;;-0.10;99.90;;;;;;12490623;28;20093;-39
2022/03/06 00:26:44;;;;;;;17.13;8.50;;;-0.20;99.90;;;;;;12457920;28;20145;-36
2022/03/06 00:32:47;;;;;;;13.85;8.30;;;-0.40;99.90;;;;;;12470126;28;20045;-35
2022/03/06 00:38:50;;;;;;;14.18;8.00;;;-0.40;99.90;;;;;;12493518;28;20065;-38
2022/03/06 00:44:53;;;;;;;14.23;8.70;;;-0.40;99.90;;;;;;12486694;28;20052;-36
2022/03/06 00:50:56;;;;;;;11.00;7.27;;;-0.40;99.90;;;;;;12491882;28;20045;-39
2022/03/06 00:57:00;;;;;;;13.45;8.10;;;-0.40;99.90;;;;;;12488551;28;20084;-39
2022/03/06 01:03:04;;;;;;;16.83;8.88;;;-0.50;99.90;;;;;;12487415;28;20045;-38
2022/03/06 01:09:07;;;;;;;;;;;-0.60;99.90;;;;;;12459084;28;20057;-39
2022/03/06 01:15:10;;;;;;;13.43;8.40;;;-0.60;99.90;;;;;;12487420;28;19932;-35
2022/03/06 01:21:12;;;;;;;14.00;8.57;;;-0.60;99.90;;;;;;12485690;28;21416;-39
2022/03/06 01:27:16;;;;;;;16.95;9.40;;;-0.50;99.90;;;;;;12467338;28;20124;-35
2022/03/06 01:33:18;;;;;;;16.35;10.35;;;-0.50;99.90;;;;;;12485237;28;20073;-38
2022/03/06 01:39:21;;;;;;;16.40;9.88;;;-0.40;99.90;;;;;;12471252;28;20095;-35
2022/03/06 01:45:25;;;;;;;14.55;9.43;;;-0.30;99.90;;;;;;12480954;28;20049;-38
2022/03/06 01:51:28;;;;;;;16.80;10.20;;;-0.30;99.90;;;;;;12421936;28;20080;-35
2022/03/06 01:57:32;;;;;;;16.60;9.73;;;-0.10;99.90;;;;;;12437262;28;20450;-36
2022/03/06 02:03:35;;;;;;;15.02;10.40;;;0.00;99.90;;;;;;12422770;28;20054;-35
2022/03/06 02:09:38;;;;;;;18.25;11.10;;;0.00;99.90;;;;;;12433944;28;20061;-38
2022/03/06 02:15:41;;;;;;;18.65;11.18;;;0.10;99.90;;;;;;12439309;28;20115;-38
2022/03/06 02:21:48;;;;;;;17.52;10.85;;;0.10;99.90;;;;;;12437617;28;20088;-35
2022/03/06 02:27:53;;;;;;;18.42;11.20;;;0.10;99.90;;;;;;12434358;28;20509;-37
2022/03/06 02:33:56;;;;;;;18.67;11.60;;;0.10;99.90;;;;;;12418299;28;20140;-39
2022/03/06 02:40:01;;;;;;;19.88;12.50;;;0.00;99.90;;;;;;12439954;28;20061;-38
2022/03/06 02:46:04;;;;;;;19.60;12.50;;;0.00;99.90;;;;;;12436395;28;20061;-39
2022/03/06 02:52:08;;;;;;;20.65;12.38;;;0.00;99.90;;;;;;12434500;28;20111;-35
2022/03/06 02:58:12;;;;;;;18.10;11.70;;;0.10;99.90;;;;;;12437518;28;20595;-35
2022/03/06 03:04:15;;;;;;;;;;;0.10;99.90;;;;;;12436834;28;20128;-39
2022/03/06 03:10:22;;;;;;;18.02;11.38;;;0.20;99.90;;;;;;12435391;28;20372;-36
2022/03/06 03:16:27;;;;;;;20.55;12.55;;;0.10;99.90;;;;;;12434204;28;20111;-38
2022/03/06 03:22:32;;;;;;;18.48;12.05;;;0.20;99.90;;;;;;12434328;28;20116;-39
2022/03/06 03:28:36;;;;;;;22.75;13.50;;;0.00;99.90;;;;;;12436966;28;20057;-35
2022/03/06 03:34:38;;;;;;;20.95;13.23;;;0.10;99.90;;;;;;12437156;28;20509;-35
2022/03/06 03:40:41;;;;;;;20.70;12.75;;;0.00;99.90;;;;;;12442017;28;20053;-38
2022/03/06 03:46:45;;;;;;;21.10;13.67;;;0.00;99.90;;;;;;12405854;28;20060;-35
2022/03/06 03:52:48;;;;;;;20.42;13.50;;;0.00;99.90;;;;;;12442625;28;20045;-37
2022/03/06 03:58:51;;;;;;;19.45;12.27;;;0.00;99.90;;;;;;12443244;28;20064;-39
2022/03/06 04:04:54;;;;;;;19.30;12.67;;;0.00;99.90;;;;;;12441830;28;20049;-38
2022/03/06 04:10:59;;;;;;;20.27;13.77;;;0.30;99.90;;;;;;12442051;28;20054;-35
2022/03/06 04:17:04;;;;;;;18.48;11.60;;;0.20;99.90;;;;;;12443038;28;20593;-35
2022/03/06 04:23:11;;;;;;;19.58;11.80;;;0.00;99.90;;;;;;12441251;28;20053;-38
2022/03/06 04:29:15;;;;;;;20.13;12.10;;;0.10;99.90;;;;;;12441635;28;20054;-36
2022/03/06 04:35:19;;;;;;;20.65;11.98;;;0.20;99.90;;;;;;12440234;28;20056;-38
2022/03/06 04:41:22;;;;;;;19.60;11.88;;;0.10;99.90;;;;;;12425791;28;20814;-38
2022/03/06 04:47:24;;;;;;;19.25;11.60;;;-0.10;99.90;;;;;;12437593;28;20849;-39
2022/03/06 04:53:28;;;;;;;17.70;11.52;;;-0.10;99.90;;;;;;12438235;28;20092;-35
2022/03/06 04:59:30;;;;;;;19.67;12.15;;;-0.10;99.90;;;;;;12439463;28;20132;-35
2022/03/06 05:05:33;;;;;;;16.50;11.20;;;-0.10;99.90;;;;;;12423776;28;20081;-39
2022/03/06 05:11:35;;;;;;;16.27;10.85;;;0.00;99.90;;;;;;12435914;28;20100;-36
2022/03/06 05:17:41;;;;;;;19.17;11.57;;;0.00;99.90;;;;;;12443793;28;21841;-37
2022/03/06 05:23:45;;;;;;;16.67;10.32;;;0.00;99.90;;;;;;12438005;28;20058;-39
2022/03/06 05:29:48;;;;;;;18.58;11.27;;;0.00;99.90;;;;;;12439877;28;20049;-35
2022/03/06 05:35:51;;;;;;;18.00;11.10;;;0.00;99.90;;;;;;12437890;28;20072;-35
2022/03/06 05:41:54;;;;;;;20.85;12.05;;;0.00;99.90;;;;;;12409172;28;20205;-35
2022/03/06 05:47:58;;;;;;;17.70;11.45;;;0.00;99.90;;;;;;12437592;28;20054;-35
2022/03/06 05:54:01;;;;;;;21.10;12.20;;;-0.20;99.90;;;;;;12435688;28;20549;-38
2022/03/06 06:00:08;;;;;;;19.30;11.75;;;-0.30;99.90;;;;;;12436647;28;20502;-35
2022/03/06 06:06:10;;;;;;;21.83;12.02;;;-0.30;99.90;;;;;;12437225;28;20055;-43
2022/03/06 06:12:13;;;;;;;21.48;12.38;;;-0.30;99.90;;;;;;12433427;28;20050;-36
2022/03/06 06:18:16;;;;;;;19.33;12.35;;;-0.50;99.90;;;;;;12441706;28;20049;-40
2022/03/06 06:24:19;;;;;;;21.47;13.27;;;-0.50;99.90;;;;;;12434966;28;20050;-39
2022/03/06 06:30:22;;;;;;;22.30;13.30;;;-0.50;99.90;;;;;;12434321;28;20081;-35
2022/03/06 06:36:27;;;;;;;23.80;13.10;;;-0.40;99.90;;;;;;12435066;28;20057;-38
2022/03/06 06:42:30;;;;;;;21.05;12.73;;;0.00;99.90;;;;;;12414447;28;20145;-39
2022/03/06 06:48:33;;;;;;;21.00;12.27;;;0.10;99.90;;;;;;12436399;28;20057;-38
2022/03/06 06:54:36;;;;;;;21.20;12.55;;;0.00;99.90;;;;;;12431663;28;20414;-37
2022/03/06 07:00:40;;;;;;;19.37;12.27;;;0.10;99.90;;;;;;12423087;28;20043;-38
2022/03/06 07:06:44;;;;;;;19.73;11.68;;;0.50;99.90;;;;;;12436446;28;20045;-35
2022/03/06 07:12:51;;;;;;;19.53;12.03;;;0.50;99.90;;;;;;12444439;28;20664;-38
2022/03/06 07:18:54;;;;;;;17.63;11.00;;;0.50;99.90;;;;;;12448380;28;20292;-40
2022/03/06 07:24:58;;;;;;;17.40;11.20;;;0.80;99.90;;;;;;12441101;28;20052;-40
2022/03/06 07:31:01;;;;;;;16.83;11.47;;;1.10;99.90;;;;;;12443727;28;20091;-39
2022/03/06 07:37:05;;;;;;;21.63;11.95;;;1.20;99.90;;;;;;12450526;28;20080;-39
2022/03/06 07:43:08;;;;;;;20.42;11.00;;;1.40;99.90;;;;;;12441893;28;20046;-38
2022/03/06 07:49:12;;;;;;;18.00;10.95;;;1.40;99.90;;;;;;12427729;28;20486;-39
2022/03/06 07:55:16;;;;;;;17.02;10.23;;;1.50;99.90;;;;;;12439391;28;20142;-39
2022/03/06 08:01:22;;;;;;;16.20;10.23;;;1.50;99.90;;;;;;12440836;28;20168;-36
2022/03/06 08:07:26;;;;;;;16.98;10.98;;;1.80;99.90;;;;;;12431051;28;20080;-39
2022/03/06 08:13:30;;;;;;;13.50;9.07;;;2.10;99.90;;;;;;12428403;28;20102;-35
2022/03/06 08:19:33;;;;;;;16.00;9.97;;;2.00;99.90;;;;;;12445127;28;20061;-38
2022/03/06 08:25:39;;;;;;;13.93;9.88;;;2.20;99.90;;;;;;12445636;28;20312;-35
2022/03/06 08:31:41;;;;;;;14.53;9.80;;;2.20;99.90;;;;;;12442302;28;20053;-35
2022/03/06 08:37:45;;;;;;;11.45;8.05;;;2.30;99.90;;;;;;12424756;28;20059;-35
2022/03/06 08:43:48;;;;;;;11.25;7.22;;;2.40;99.90;;;;;;12444628;28;20048;-39
2022/03/06 08:49:51;;;;;;;9.15;5.82;;;2.40;99.90;;;;;;12440362;28;20681;-39
2022/03/06 08:55:54;;;;;;;10.25;5.43;;;2.50;99.90;;;;;;12437345;28;20050;-37
2022/03/06 09:01:57;;;;;;;11.20;5.75;;;2.80;99.90;;;;;;12437790;28;20978;-36
2022/03/06 09:08:02;;;;;;;9.50;5.50;;;2.70;99.90;;;;;;12443477;28;20049;-38
2022/03/06 09:14:07;;;;;;;10.98;5.28;;;2.90;99.90;;;;;;12435073;28;20486;-37
2022/03/06 09:20:11;;;;;;;9.27;4.72;;;2.80;99.90;;;;;;12435563;28;20661;-41
2022/03/06 09:26:15;;;;;;;7.38;5.03;;;3.20;99.90;;;;;;12442026;28;20057;-36
2022/03/06 09:32:18;;;;;;;7.87;5.07;;;3.20;99.90;;;;;;12433926;28;20067;-36
2022/03/06 09:38:21;;;;;;;11.43;4.97;;;3.60;99.90;;;;;;12439415;28;20060;-39
2022/03/06 09:44:27;;;;;;;8.73;5.30;;;3.50;99.90;;;;;;12437416;28;20561;-36
2022/03/06 09:50:29;;;;;;;8.43;5.10;;;3.60;99.90;;;;;;12434138;28;20137;-38
2022/03/06 09:56:33;;;;;;;8.45;4.90;;;3.50;99.90;;;;;;12436917;28;20447;-35
2022/03/06 10:02:57;;;;;;;9.10;4.72;;;3.30;99.90;;;;;;12434445;28;20418;-39
2022/03/06 10:09:04;;;;;;;7.90;4.65;;;3.80;99.90;;;;;;12436533;28;20052;-39
2022/03/06 10:15:11;;;;;;;6.55;4.00;;;4.00;99.90;;;;;;12436535;28;20053;-35
2022/03/06 10:21:36;;;;;;;8.75;4.60;;;4.10;99.90;;;;;;12434051;28;20087;-39
2022/03/06 10:27:58;;;;;;;7.50;4.43;;;4.00;99.90;;;;;;12419954;28;20042;-39
2022/03/06 10:34:10;;;;;;;6.30;3.85;;;4.10;99.90;;;;;;12436214;28;20525;-40
2022/03/06 10:40:14;;;;;;;8.13;3.92;;;4.30;99.90;;;;;;12438907;28;20065;-35
2022/03/06 10:46:21;;;;;;;7.80;4.22;;;4.20;99.90;;;;;;12447918;28;20157;-40
2022/03/06 10:52:24;;;;;;;6.13;3.65;;;4.20;99.90;;;;;;12442489;28;20069;-35
2022/03/06 11:05:14;;;;;;;7.53;3.97;;;4.40;99.90;;;;;;12270327;24;20735;-84
2022/03/06 11:11:16;;;;;;;7.28;4.00;;;4.70;99.90;;;;;;11882015;29;20054;-83
2022/03/06 11:17:19;;;;;;;6.75;3.85;;;5.00;99.90;;;;;;11881183;29;20591;-84
2022/03/06 11:23:45;;;;;;;8.55;4.13;;;5.20;99.90;;;;;;11880522;29;20067;-85
2022/03/06 11:30:02;;;;;;;10.45;3.42;;;4.70;99.90;;;;;;11883656;29;20063;-84
2022/03/06 11:36:22;;;;;;;6.90;3.92;;;4.60;99.90;;;;;;11884254;29;20108;-84
2022/03/06 11:42:48;;;;;;;6.38;3.80;;;4.70;99.90;;;;;;11880705;29;20071;-85
2022/03/06 11:48:50;;;;;;;7.90;3.90;;;4.30;99.90;;;;;;11876821;29;20111;-84
2022/03/06 11:54:52;;;;;;;8.10;4.18;;;4.40;99.90;;;;;;11866650;29;20057;-84
2022/03/06 12:00:54;;;;;;;7.68;4.18;;;4.60;99.90;;;;;;11881898;29;20063;-84
2022/03/06 12:07:05;;;;;;;5.68;4.25;;;4.60;99.90;;;;;;11873571;29;20070;-84
2022/03/06 12:13:23;;;;;;;5.47;3.45;;;4.70;99.90;;;;;;11868358;29;20059;-84
2022/03/06 12:19:30;;;;;;;7.00;3.42;;;4.50;99.90;;;;;;11873305;29;20058;-84
2022/03/06 12:25:34;;;;;;;5.32;3.30;;;4.50;99.90;;;;;;11869123;29;20051;-84
2022/03/06 12:31:37;;;;;;;;;;;4.30;99.90;;;;;;11874606;29;20051;-85
2022/03/06 12:37:46;;;;;;;6.25;3.15;;;4.70;99.90;;;;;;11871031;29;19964;-84
2022/03/06 12:43:56;;;;;;;6.80;3.67;;;5.50;99.90;;;;;;11888160;29;20119;-84
2022/03/06 12:49:59;;;;;;;7.72;3.58;;;5.90;99.90;;;;;;11867168;29;20480;-84
2022/03/06 12:56:01;;;;;;;5.63;3.33;;;4.80;99.90;;;;;;11866531;29;20469;-85
2022/03/06 13:02:06;;;;;;;5.72;3.70;;;4.50;99.90;;;;;;11860614;29;20131;-85
2022/03/06 13:08:08;;;;;;;7.30;3.30;;;4.70;99.90;;;;;;11867032;29;20115;-84
2022/03/06 13:14:10;;;;;;;6.70;3.85;;;4.60;99.90;;;;;;11886394;29;20120;-85
2022/03/06 13:20:14;;;;;;;6.90;3.70;;;4.60;99.90;;;;;;11878996;29;20059;-84
2022/03/06 13:26:16;;;;;;;5.60;3.40;;;4.60;99.90;;;;;;11888759;29;20059;-84
2022/03/06 13:32:28;;;;;;;6.93;3.60;;;4.60;99.90;;;;;;11880886;29;20097;-84
2022/03/06 13:38:34;;;;;;;6.07;3.83;;;4.80;99.90;;;;;;11872300;29;20055;-84
2022/03/06 13:44:36;;;;;;;7.00;4.10;;;4.80;99.90;;;;;;11868797;29;20124;-84
2022/03/06 13:50:47;;;;;;;8.73;3.45;;;4.50;99.90;;;;;;11873187;29;20055;-83
2022/03/06 13:56:58;;;;;;;5.93;3.50;;;4.20;99.90;;;;;;11868760;29;20748;-84
2022/03/06 14:03:05;;;;;;;7.13;3.90;;;4.40;99.90;;;;;;11850588;29;20512;-84
2022/03/06 14:09:27;;;;;;;4.93;3.33;;;4.10;99.90;;;;;;11864399;29;20063;-84
2022/03/06 14:15:33;;;;;;;6.70;3.83;;;4.10;99.90;;;;;;11881887;29;20051;-84
2022/03/06 14:21:40;;;;;;;5.72;3.58;;;4.30;99.90;;;;;;11865899;29;20433;-84
2022/03/06 14:27:42;;;;;;;7.60;4.05;;;4.10;99.90;;;;;;11874574;29;20050;-84
2022/03/06 14:33:47;;;;;;;;;;;4.20;99.90;;;;;;11877427;29;20094;-84
2022/03/06 14:39:48;;;;;;;6.55;4.00;;;4.30;99.90;;;;;;11867600;29;20419;-84
2022/03/06 14:45:50;;;;;;;9.25;4.28;;;4.00;99.90;;;;;;11881039;29;20990;-84
2022/03/06 14:51:52;;;;;;;8.02;4.40;;;3.80;99.90;;;;;;11876815;29;20047;-84
2022/03/06 14:57:54;;;;;;;6.88;3.90;;;3.90;99.90;;;;;;11868403;29;20063;-84
2022/03/06 15:03:56;;;;;;;7.00;4.47;;;4.00;99.90;;;;;;11871512;29;20078;-84
2022/03/06 15:09:58;;;;;;;8.10;4.40;;;4.00;99.90;;;;;;11881402;29;20150;-83
2022/03/06 15:16:00;;;;;;;6.47;3.83;;;3.90;99.90;;;;;;11870167;29;20111;-84
2022/03/06 15:22:02;;;;;;;6.78;4.13;;;3.90;99.90;;;;;;11873454;29;20047;-84
2022/03/06 15:28:04;;;;;;;6.88;4.38;;;4.00;99.90;;;;;;11871303;29;20067;-84
2022/03/06 15:34:06;;;;;;;5.90;4.28;;;3.50;99.90;;;;;;11885510;29;20059;-84
2022/03/06 15:40:09;;;;;;;6.93;4.60;;;3.80;99.90;;;;;;11878774;29;20047;-84
2022/03/06 15:46:11;;;;;;;5.90;4.03;;;3.40;99.90;;;;;;11890158;29;20050;-84
2022/03/06 15:52:13;;;;;;;7.07;3.67;;;3.50;99.90;;;;;;11877696;29;20139;-84
2022/03/06 15:58:15;;;;;;;6.45;3.65;;;3.50;99.90;;;;;;11877799;29;20523;-83
2022/03/06 16:04:18;;;;;;;8.30;4.35;;;3.50;99.90;;;;;;11879642;29;20119;-83
2022/03/06 16:10:20;;;;;;;5.85;3.92;;;3.30;99.90;;;;;;11879220;29;20083;-84
2022/03/06 16:16:22;;;;;;;6.65;4.53;;;3.30;99.90;;;;;;11887621;29;20511;-83
2022/03/06 16:22:23;;;;;;;8.20;5.00;;;3.10;99.90;;;;;;11877179;29;20097;-84
2022/03/06 16:28:25;;;;;;;5.70;3.60;;;3.10;99.90;;;;;;11865338;29;20409;-83
2022/03/06 16:34:29;;;;;;;6.47;3.35;;;3.00;99.90;;;;;;11882170;29;20051;-83
2022/03/06 16:40:31;;;;;;;10.00;3.63;;;2.80;99.90;;;;;;11876625;29;20058;-84
2022/03/06 16:46:33;;;;;;;6.13;3.17;;;2.70;99.90;;;;;;11878229;29;20063;-84
2022/03/06 16:52:35;;;;;;;4.88;3.00;;;2.70;99.90;;;;;;11873753;29;20062;-84
2022/03/06 16:58:37;;;;;;;5.05;3.22;;;2.60;99.90;;;;;;11886723;29;20112;-84
2022/03/06 17:04:39;;;;;;;6.55;3.85;;;2.60;99.90;;;;;;11888025;29;20063;-84
2022/03/06 17:10:41;;;;;;;6.65;4.05;;;2.40;99.90;;;;;;11903310;29;20160;-84
2022/03/06 17:16:43;;;;;;;6.55;3.72;;;2.30;99.90;;;;;;11890322;29;20036;-83
2022/03/06 17:22:48;;;;;;;6.70;4.13;;;2.10;99.90;;;;;;11871490;29;20055;-84
2022/03/06 17:28:51;;;;;;;5.90;3.85;;;1.90;99.90;;;;;;11852619;29;20055;-84
2022/03/06 17:34:53;;;;;;;6.40;3.67;;;1.60;99.90;;;;;;11868433;29;20556;-83
2022/03/06 17:40:55;;;;;;;10.10;5.03;;;1.50;99.90;;;;;;11876816;29;20626;-84
2022/03/06 17:46:59;;;;;;;9.55;5.47;;;1.30;99.90;;;;;;11876266;29;20118;-83
2022/03/06 17:53:02;;;;;;;9.75;5.25;;;1.20;99.90;;;;;;11884062;29;20051;-83
2022/03/06 17:59:04;;;;;;;11.68;6.05;;;1.10;99.90;;;;;;11855586;29;20061;-84
2022/03/06 18:05:06;;;;;;;8.35;5.18;;;0.90;99.90;;;;;;11859959;29;20497;-84
2022/03/06 18:11:08;;;;;;;8.63;4.90;;;0.80;99.90;;;;;;11860082;29;20051;-84
2022/03/06 18:17:10;;;;;;;9.15;4.93;;;0.70;99.90;;;;;;11850114;29;20063;-84
2022/03/06 18:23:12;;;;;;;11.60;5.65;;;0.70;99.90;;;;;;11854085;29;20047;-84
2022/03/06 18:29:14;;;;;;;8.63;5.38;;;0.50;99.90;;;;;;11872599;29;20050;-84
2022/03/06 18:35:16;;;;;;;8.02;5.05;;;0.40;99.90;;;;;;11873943;29;20051;-84
2022/03/06 18:41:19;;;;;;;9.85;6.60;;;0.50;99.90;;;;;;11876105;29;20043;-84
2022/03/06 18:47:24;;;;;;;13.80;7.57;;;0.50;99.90;;;;;;11885795;29;20082;-84
2022/03/06 18:53:26;;;;;;;13.50;7.38;;;0.50;99.90;;;;;;11872902;29;20061;-83
2022/03/06 18:59:28;;;;;;;12.00;7.53;;;0.40;99.90;;;;;;11872950;29;20063;-84
2022/03/06 19:05:33;;;;;;;13.63;7.72;;;0.50;99.90;;;;;;11881310;29;20116;-84
2022/03/06 19:11:55;;;;;;;11.68;7.20;;;0.40;99.90;;;;;;11891809;29;20127;-84
2022/03/06 19:17:57;;;;;;;11.00;7.03;;;0.40;99.90;;;;;;11893279;29;20055;-83
2022/03/06 19:23:59;;;;;;;11.93;7.78;;;0.40;99.90;;;;;;11881812;29;20047;-83
2022/03/06 19:30:04;;;;;;;11.23;7.28;;;0.40;99.90;;;;;;11892835;29;20100;-84
2022/03/06 19:36:06;;;;;;;12.05;6.47;;;0.40;99.90;;;;;;11887325;29;20071;-84
2022/03/06 19:42:09;;;;;;;11.63;7.38;;;0.20;99.90;;;;;;11881510;29;20572;-83
2022/03/06 19:48:11;;;;;;;13.73;7.10;;;0.10;99.90;;;;;;11882506;29;20417;-84
2022/03/06 19:54:19;;;;;;;10.57;6.93;;;0.20;99.90;;;;;;11889474;29;20052;-84
2022/03/06 20:00:21;;;;;;;11.20;6.95;;;0.20;99.90;;;;;;11884439;29;20050;-83
2022/03/06 20:06:23;;;;;;;12.07;7.30;;;0.20;99.90;;;;;;11886743;29;20062;-84
2022/03/06 20:12:25;;;;;;;9.55;6.80;;;0.10;99.90;;;;;;11890589;29;20112;-84
2022/03/06 20:18:27;;;;;;;14.73;9.82;;;0.30;99.90;;;;;;11875417;29;20150;-84
2022/03/06 20:24:30;;;;;;;12.38;8.98;;;0.10;99.90;;;;;;11879626;29;20542;-84
2022/03/06 20:30:31;;;;;;;14.27;9.88;;;0.10;99.90;;;;;;11879094;29;21062;-83
2022/03/06 20:36:35;;;;;;;21.73;15.30;;;0.10;99.90;;;;;;11877959;29;20086;-84
2022/03/06 20:42:37;;;;;;;26.13;17.20;;;0.00;99.90;;;;;;11874738;29;20043;-84
2022/03/06 20:48:39;;;;;;;13.25;9.10;;;0.00;99.90;;;;;;11875108;29;20055;-84
2022/03/06 20:54:40;;;;;;;19.05;10.27;;;0.10;99.90;;;;;;11877308;29;20577;-84
2022/03/06 21:00:42;;;;;;;28.10;18.73;;;0.10;99.90;;;;;;11882414;29;21034;-84
2022/03/06 21:06:44;;;;;;;11.93;7.35;;;0.10;99.90;;;;;;11888782;29;20067;-84
2022/03/06 21:12:50;;;;;;;11.05;7.28;;;0.10;99.90;;;;;;11889824;29;20058;-84
2022/03/06 21:18:52;;;;;;;10.88;7.78;;;0.10;99.90;;;;;;11883609;29;20059;-84
2022/03/06 21:24:54;;;;;;;19.77;8.85;;;0.00;99.90;;;;;;11878037;29;20051;-83
2022/03/06 21:30:58;;;;;;;13.93;6.90;;;0.10;99.90;;;;;;11886891;29;20536;-83
2022/03/06 21:37:00;;;;;;;11.52;7.30;;;0.10;99.90;;;;;;11889584;29;20382;-84
2022/03/06 21:43:02;;;;;;;12.68;6.70;;;0.20;99.90;;;;;;11873170;29;20058;-83
2022/03/06 21:49:04;;;;;;;12.27;6.75;;;0.30;99.90;;;;;;11883537;29;20058;-83
2022/03/06 21:55:07;;;;;;;16.17;8.43;;;0.30;99.90;;;;;;11875634;29;20051;-83
2022/03/06 22:01:09;;;;;;;13.00;7.68;;;0.20;99.90;;;;;;11879023;29;20062;-83
2022/03/06 22:07:12;;;;;;;12.32;7.22;;;0.10;99.90;;;;;;11881374;29;20134;-83
2022/03/06 22:13:14;;;;;;;10.68;6.65;;;0.00;99.90;;;;;;11882105;29;20505;-83
2022/03/06 22:19:16;;;;;;;10.13;6.25;;;0.30;99.90;;;;;;11879541;29;20103;-83
2022/03/06 22:25:22;;;;;;;12.80;7.60;;;0.40;99.90;;;;;;11873167;29;20142;-83
2022/03/06 22:31:23;;;;;;;11.77;7.35;;;0.30;99.90;;;;;;11873575;29;20494;-83
2022/03/06 22:37:25;;;;;;;11.13;7.13;;;0.30;99.90;;;;;;11879741;29;20083;-83
2022/03/06 22:43:27;;;;;;;11.32;6.18;;;0.30;99.90;;;;;;11883221;29;20066;-83
2022/03/06 22:49:29;;;;;;;9.57;6.13;;;0.10;99.90;;;;;;11887232;29;20051;-83
2022/03/06 22:55:32;;;;;;;10.57;6.35;;;0.20;99.90;;;;;;11881960;29;20591;-83
2022/03/06 23:01:33;;;;;;;13.32;7.25;;;0.20;99.90;;;;;;11893323;29;20497;-83
2022/03/06 23:07:36;;;;;;;10.35;6.43;;;0.10;99.90;;;;;;11898875;29;20218;-83
2022/03/06 23:13:37;;;;;;;13.95;6.65;;;0.20;99.90;;;;;;11893802;29;20077;-83
2022/03/06 23:19:41;;;;;;;11.43;7.60;;;0.40;99.90;;;;;;11884277;29;20163;-83
2022/03/06 23:25:43;;;;;;;12.02;7.10;;;0.20;99.90;;;;;;11883463;29;20589;-83
2022/03/06 23:31:45;;;;;;;11.20;6.97;;;0.10;99.90;;;;;;11882183;29;20108;-83
2022/03/06 23:37:47;;;;;;;12.30;7.45;;;0.10;99.90;;;;;;11886852;29;20142;-83
2022/03/06 23:43:48;;;;;;;14.82;8.25;;;0.10;99.90;;;;;;11880215;29;20055;-83
2022/03/06 23:49:50;;;;;;;13.85;8.55;;;0.20;99.90;;;;;;11883400;29;20062;-82
2022/03/06 23:55:52;;;;;;;14.65;8.43;;;0.10;99.90;;;;;;11881148;29;20051;-83
